Time;durP1;ratioP1;P1;durP2;ratioP2;P2;SDS_P1;SDS_P2;PMS_P1;PMS_P2;Temp;Humidity;BMP_temperature;BMP_pressure;BME280_temperature;BME280_humidity;BME280_pressure;Samples;Min_cycle;Max_cycle;Signal;HPM_P1;HPM_P2
2022/12/26 00:01:54;;;;;;;;;3.00;3.00;;;;;17.29;45.61;100568.47;5058530;28;45488;-73
2022/12/26 00:04:21;;;;;;;;;4.00;4.00;;;;;17.27;45.57;100562.28;5059216;28;45478;-83
2022/12/26 00:06:48;;;;;;;;;4.00;3.67;;;;;17.04;45.30;100526.13;5060951;28;45442;-68
2022/12/26 00:09:13;;;;;;;;;4.00;3.00;;;;;17.23;45.37;100553.47;5057296;28;45280;-81
2022/12/26 00:11:39;;;;;;;;;5.00;4.00;;;;;17.03;46.51;100539.31;5059103;28;45867;-82
2022/12/26 00:14:11;;;;;;;;;5.00;4.33;;;;;16.88;46.66;100554.22;5059552;28;46310;-68
2022/12/26 00:16:39;;;;;;;;;5.00;5.00;;;;;16.84;47.57;100573.56;5055854;28;45481;-68
2022/12/26 00:19:05;;;;;;;;;6.67;6.00;;;;;16.73;47.46;100583.13;5056935;28;45474;-70
2022/12/26 00:21:31;;;;;;;;;5.00;4.33;;;;;16.71;47.65;100579.59;5055651;28;46265;-68
2022/12/26 00:23:58;;;;;;;;;4.67;4.67;;;;;16.63;47.94;100576.03;5056160;28;45378;-68
2022/12/26 00:26:25;;;;;;;;;0.00;0.00;;;;;16.63;47.73;100579.59;5058599;28;45505;-67
2022/12/26 00:28:53;;;;;;;;;4.33;4.00;;;;;16.64;47.51;100594.53;5061126;28;45537;-67
2022/12/26 00:31:26;;;;;;;;;5.00;4.00;;;;;16.69;47.09;100583.97;5054097;28;45545;-67
2022/12/26 00:33:53;;;;;;;;;4.00;3.00;;;;;16.71;47.24;100584.88;5059214;28;45488;-69
2022/12/26 00:36:22;;;;;;;;;4.00;3.00;;;;;16.69;47.17;100586.63;5059216;28;45543;-67
2022/12/26 00:38:48;;;;;;;;;4.67;3.67;;;;;16.72;46.74;100578.75;5059218;28;45481;-71
2022/12/26 00:41:15;;;;;;;;;4.00;4.00;;;;;16.79;46.35;100574.38;5057915;28;45470;-68
2022/12/26 00:43:41;;;;;;;;;3.00;3.00;;;;;16.79;46.47;100563.81;5059291;28;45542;-71
2022/12/26 00:46:08;;;;;;;;;5.00;3.67;;;;;16.77;46.77;100571.75;5058981;28;45564;-69
2022/12/26 00:48:34;;;;;;;;;3.67;3.33;;;;;16.75;46.66;100575.22;5053591;28;45437;-67
2022/12/26 00:51:00;;;;;;;;;3.00;3.00;;;;;16.71;46.68;100571.69;5058951;28;45371;-72
2022/12/26 00:53:26;;;;;;;;;4.67;4.00;;;;;16.46;46.58;100525.84;5058591;28;45629;-70
2022/12/26 00:55:53;;;;;;;;;3.00;3.00;;;;;16.70;46.55;100564.66;5058577;28;45369;-68
2022/12/26 00:58:19;;;;;;;;;5.00;4.33;;;;;16.53;46.59;100537.31;5058809;28;45526;-68
2022/12/26 01:00:45;;;;;;;;;5.00;4.33;;;;;16.68;46.51;100569.91;5058557;28;45482;-68
2022/12/26 01:03:12;;;;;;;;;4.00;4.00;;;;;16.58;46.62;100556.69;5058374;28;45467;-67
2022/12/26 01:05:48;;;;;;;;;2.00;2.00;;;;;16.65;46.61;100576.94;5058337;28;45253;-70
2022/12/26 01:08:16;;;;;;;;;3.00;3.00;;;;;16.73;46.14;100569.06;5056193;28;45462;-67
2022/12/26 01:10:45;;;;;;;;;3.00;3.00;;;;;16.84;45.00;100570.91;5058234;28;46243;-69
2022/12/26 01:13:10;;;;;;;;;3.00;3.00;;;;;16.87;45.53;100560.38;5057955;28;45404;-68
2022/12/26 01:15:36;;;;;;;;;2.00;2.00;;;;;16.93;45.43;100559.53;5058297;28;45541;-70
2022/12/26 01:18:02;;;;;;;;;3.00;3.00;;;;;16.89;45.58;100533.97;5058353;28;45447;-77
2022/12/26 01:20:30;;;;;;;;;4.00;3.00;;;;;17.03;45.09;100542.84;5058001;28;45495;-68
2022/12/26 01:22:56;;;;;;;;;3.67;3.00;;;;;17.12;44.80;100542.00;5055909;28;45665;-72
2022/12/26 01:25:22;;;;;;;;;3.00;3.00;;;;;17.20;44.37;100537.63;5058219;28;45511;-75
2022/12/26 01:27:48;;;;;;;;;3.00;2.00;;;;;17.32;43.76;100530.59;5058229;28;46270;-70
2022/12/26 01:30:13;;;;;;;;;2.00;2.00;;;;;17.36;43.72;100553.50;5057864;28;46246;-69
2022/12/26 01:32:39;;;;;;;;;3.00;2.00;;;;;17.32;43.74;100546.47;5057866;28;45426;-68
2022/12/26 01:35:05;;;;;;;;;3.33;2.00;;;;;17.30;43.83;100539.41;5058555;28;45397;-68
2022/12/26 01:37:30;;;;;;;;;2.67;2.67;;;;;17.32;43.52;100528.84;5057280;28;45537;-69
2022/12/26 01:39:56;;;;;;;;;3.00;3.00;;;;;17.40;43.27;100545.59;5057694;28;45679;-66
2022/12/26 01:42:24;;;;;;;;;2.00;2.00;;;;;17.42;43.27;100549.09;5057838;28;45501;-66
2022/12/26 01:45:17;;;;;;;;;3.00;2.33;;;;;17.49;42.97;100550.03;5057853;28;45558;-66
2022/12/26 01:48:17;;;;;;;;;2.00;1.00;;;;;17.51;42.81;100548.25;5054244;28;45370;-67
2022/12/26 01:51:00;;;;;;;;;2.33;2.33;;;;;17.39;42.58;100528.00;5039670;28;45458;-66
2022/12/26 01:53:42;;;;;;;;;3.00;2.00;;;;;17.51;42.83;100548.25;5056161;28;45867;-67
2022/12/26 01:56:15;;;;;;;;;3.33;2.00;;;;;17.52;42.89;100547.38;5055552;28;45534;-69
2022/12/26 01:58:52;;;;;;;;;3.00;2.00;;;;;17.53;42.55;100545.59;5057065;28;45312;-68
2022/12/26 02:01:19;;;;;;;;;2.67;2.33;;;;;17.39;42.74;100529.72;5053817;28;45616;-68
2022/12/26 02:06:32;;;;;;;;;2.00;2.00;;;;;17.47;42.63;100557.06;5057458;28;45481;-68
2022/12/26 02:08:58;;;;;;;;;2.00;2.00;;;;;17.45;42.86;100558.81;5057326;28;45406;-67
2022/12/26 02:11:35;;;;;;;;;3.67;3.00;;;;;17.42;42.74;100566.72;5057193;28;46203;-67
2022/12/26 02:14:03;;;;;;;;;4.00;2.33;;;;;17.37;42.46;100558.78;5055875;28;45419;-69
2022/12/26 02:16:28;;;;;;;;;1.67;1.67;;;;;17.50;42.44;100581.69;5057215;28;45430;-77
2022/12/26 02:18:54;;;;;;;;;4.00;2.33;;;;;17.47;42.50;100589.63;5057451;28;45601;-71
2022/12/26 02:21:31;;;;;;;;;2.00;2.00;;;;;17.45;42.71;100590.50;5057203;28;45554;-67
2022/12/26 02:24:50;;;;;;;;;3.00;2.00;;;;;17.37;42.83;100610.69;5055095;28;45445;-78
2022/12/26 02:27:47;;;;;;;;;2.67;2.67;;;;;17.43;42.55;100610.75;5016434;28;45501;-68
2022/12/26 02:30:39;;;;;;;;;3.00;2.00;;;;;17.38;42.74;100615.13;5057171;28;45572;-76
2022/12/26 02:33:19;;;;;;;;;4.67;4.00;;;;;17.41;42.60;100615.16;5046209;28;47775;-66
2022/12/26 02:36:22;;;;;;;;;4.00;3.00;;;;;17.28;42.74;100615.06;5055182;28;45378;-68
2022/12/26 02:39:24;;;;;;;;;3.33;3.00;;;;;16.58;42.90;100490.75;5052835;28;45581;-77
2022/12/26 02:42:32;;;;;;;;;2.00;2.00;;;;;17.32;42.89;100618.63;5054920;28;45535;-83
2022/12/26 02:48:02;;;;;;;;;2.33;2.33;;;;;17.33;42.81;100636.25;5053238;28;45729;-67
2022/12/26 03:14:39;;;;;;;;;1.33;1.33;;;;;17.22;42.77;100641.47;5056502;28;45498;-67
2022/12/26 03:17:20;;;;;;;;;1.33;1.33;;;;;17.20;42.76;100643.22;5056815;28;45449;-66
2022/12/26 03:20:00;;;;;;;;;2.00;2.00;;;;;17.28;42.95;100659.97;5057242;28;45316;-83
2022/12/26 03:22:35;;;;;;;;;2.00;2.00;;;;;17.06;42.88;100623.78;5057638;28;45204;-67
2022/12/26 03:27:51;;;;;;;;;2.00;1.00;;;;;17.36;42.55;100669.69;5058068;28;45530;-67
2022/12/26 03:33:01;;;;;;;;;2.00;2.00;;;;;17.21;43.00;100668.75;5057742;28;45863;-83
2022/12/26 03:35:31;;;;;;;;;2.00;2.00;;;;;17.10;43.24;100652.84;5057785;28;45166;-67
2022/12/26 03:38:13;;;;;;;;;2.67;2.67;;;;;17.08;43.25;100651.06;5058104;28;45329;-74
2022/12/26 04:44:35;;;;;;;;;2.67;2.00;;;;;17.22;43.45;100746.19;5055865;28;45451;-68
2022/12/26 04:47:01;;;;;;;;;1.67;1.00;;;;;17.21;43.57;100740.03;5056299;28;45395;-69
2022/12/26 04:52:13;;;;;;;;;1.67;1.00;;;;;17.22;43.79;100740.91;5043270;28;45470;-69
2022/12/26 04:54:39;;;;;;;;;1.00;1.00;;;;;17.22;43.68;100748.81;5055602;28;45465;-68
2022/12/26 04:57:06;;;;;;;;;2.00;1.67;;;;;17.08;43.93;100728.50;5055631;28;45421;-67
2022/12/26 04:59:32;;;;;;;;;1.00;1.00;;;;;17.10;43.69;100747.00;5054768;28;45395;-68
2022/12/26 05:10:20;;;;;;;;;4.00;2.33;;;;;17.18;43.67;100786.63;5055507;28;45901;-70
2022/12/26 05:12:46;;;;;;;;;2.00;2.00;;;;;17.18;43.73;100787.50;5057942;28;45304;-68
2022/12/26 05:15:12;;;;;;;;;3.00;2.00;;;;;17.18;43.73;100794.56;5058596;28;45423;-68
2022/12/26 05:28:41;;;;;;;;;2.00;2.00;;;;;17.09;43.98;100806.81;5059195;28;45562;-84
2022/12/26 05:31:11;;;;;;;;;2.00;2.00;;;;;17.13;44.12;100805.09;5058283;28;46035;-68
2022/12/26 05:36:26;;;;;;;;;3.00;2.67;;;;;17.13;44.00;100831.50;5058762;28;45545;-82
2022/12/26 05:38:52;;;;;;;;;3.33;3.00;;;;;17.12;44.09;100821.78;5058533;28;45537;-83
2022/12/26 05:41:18;;;;;;;;;2.00;2.00;;;;;17.06;43.92;100819.97;5058862;28;45274;-84
2022/12/26 05:43:43;;;;;;;;;2.00;2.00;;;;;16.96;44.31;100812.00;5059266;28;45376;-80
2022/12/26 05:46:09;;;;;;;;;2.33;2.00;;;;;17.05;44.22;100823.50;5058980;28;45624;-84
2022/12/26 05:48:34;;;;;;;;;3.00;1.67;;;;;17.04;44.03;100836.69;5037806;28;45479;-82
2022/12/26 05:51:01;;;;;;;;;3.00;2.33;;;;;17.05;44.74;100835.81;5058682;28;45431;-84
2022/12/26 05:53:28;;;;;;;;;2.00;2.00;;;;;17.06;44.28;100833.19;5058230;28;45397;-84
2022/12/26 05:55:53;;;;;;;;;3.00;2.00;;;;;17.07;44.42;100845.53;5058429;28;45489;-84
2022/12/26 05:58:20;;;;;;;;;3.00;2.00;;;;;17.06;44.53;100843.75;5042051;28;45423;-73
2022/12/26 06:00:45;;;;;;;;;1.00;1.00;;;;;17.04;44.36;100842.84;5058108;28;46042;-79
2022/12/26 06:03:11;;;;;;;;;4.00;2.00;;;;;17.02;44.49;100835.78;5057030;28;45487;-72
2022/12/26 06:05:36;;;;;;;;;2.33;2.00;;;;;17.03;44.84;100835.81;5057517;28;45539;-78
2022/12/26 06:08:02;;;;;;;;;2.00;2.00;;;;;17.03;44.47;100840.19;5057598;28;45510;-78
2022/12/26 06:10:28;;;;;;;;;2.00;1.00;;;;;16.99;44.34;100839.31;5057549;28;45554;-78
2022/12/26 06:12:58;;;;;;;;;1.67;1.67;;;;;16.99;44.50;100835.75;5057723;28;45435;-81
2022/12/26 06:15:24;;;;;;;;;3.00;2.00;;;;;16.99;44.41;100848.94;5057525;28;45398;-79
2022/12/26 06:17:49;;;;;;;;;2.00;2.00;;;;;16.99;44.40;100852.50;5056976;28;45426;-81
2022/12/26 06:20:15;;;;;;;;;2.00;2.00;;;;;16.98;44.44;100857.75;5056867;28;45603;-82
2022/12/26 06:22:40;;;;;;;;;27.75;24.50;;;;;16.86;44.56;100846.22;5057091;28;46202;-82
2022/12/26 06:25:07;;;;;;;;;22.50;20.25;;;;;16.92;44.66;100870.91;5056971;28;45366;-75
2022/12/26 06:27:32;;;;;;;;;13.75;11.25;;;;;16.88;44.70;100877.91;5056411;28;45424;-77
2022/12/26 06:29:58;;;;;;;;;8.67;8.00;;;;;16.92;44.68;100887.59;5056301;28;46034;-79
2022/12/26 06:32:23;;;;;;;;;5.00;5.00;;;;;16.91;44.80;100888.50;5057916;28;45474;-80
2022/12/26 06:34:49;;;;;;;;;5.00;4.33;;;;;16.93;44.73;100896.41;5061428;28;45406;-82
2022/12/26 06:37:14;;;;;;;;;3.67;3.00;;;;;16.91;44.62;100896.41;5060167;28;45558;-76
2022/12/26 06:39:40;;;;;;;;;4.00;3.67;;;;;16.94;44.42;100892.91;5057389;28;46172;-68
2022/12/26 06:42:05;;;;;;;;;4.00;3.00;;;;;16.95;44.78;100902.56;5056597;28;45569;-69
2022/12/26 06:44:31;;;;;;;;;5.00;4.00;;;;;16.95;44.51;100905.22;5056976;28;45447;-70
2022/12/26 06:46:56;;;;;;;;;3.00;3.00;;;;;16.95;44.54;100900.84;5057313;28;47268;-69
2022/12/26 06:49:24;;;;;;;;;4.00;4.00;;;;;16.96;44.62;100907.00;5056299;28;45490;-68
2022/12/26 06:51:50;;;;;;;;;4.00;3.00;;;;;16.96;44.74;100907.00;5056814;28;45481;-67
2022/12/26 06:54:16;;;;;;;;;6.00;5.33;;;;;16.96;44.83;100912.28;5057333;28;45525;-77
2022/12/26 06:56:41;;;;;;;;;5.00;5.00;;;;;16.95;44.79;100916.69;5058352;28;45380;-84
2022/12/26 06:59:09;;;;;;;;;5.00;4.67;;;;;16.95;44.93;100915.78;5059202;28;46075;-83
2022/12/26 07:01:35;;;;;;;;;3.00;3.00;;;;;16.94;45.03;100925.44;5056809;28;45514;-82
2022/12/26 07:04:01;;;;;;;;;5.00;4.33;;;;;16.94;45.01;100921.94;5057058;28;45462;-83
2022/12/26 07:06:33;;;;;;;;;7.33;6.33;;;;;16.92;44.92;100927.19;5057476;28;45276;-78
2022/12/26 07:09:02;;;;;;;;;8.33;8.00;;;;;16.92;45.11;100923.69;5057331;28;46015;-83
2022/12/26 07:11:31;;;;;;;;;7.67;7.33;;;;;16.92;45.29;100939.50;5057470;28;45464;-81
2022/12/26 07:13:57;;;;;;;;;5.00;5.00;;;;;16.93;45.15;100943.91;5057009;28;45540;-83
2022/12/26 07:16:23;;;;;;;;;12.00;10.67;;;;;16.74;45.21;100919.94;5056944;28;45343;-67
2022/12/26 07:18:52;;;;;;;;;3.67;3.00;;;;;16.90;45.04;100945.63;5056932;28;45371;-81
2022/12/26 07:21:17;;;;;;;;;2.33;2.33;;;;;16.92;45.01;100952.69;5056093;28;45633;-82
2022/12/26 07:23:43;;;;;;;;;2.67;2.33;;;;;16.90;45.18;100952.69;5056860;28;45410;-83
2022/12/26 07:26:08;;;;;;;;;2.00;2.00;;;;;16.88;45.55;100962.34;5056951;28;45493;-82
2022/12/26 07:28:34;;;;;;;;;2.67;2.33;;;;;16.75;45.38;100953.38;5056741;28;45863;-83
2022/12/26 07:31:00;;;;;;;;;3.67;3.00;;;;;16.86;45.05;100959.66;5056426;28;47418;-77
2022/12/26 07:33:26;;;;;;;;;5.00;4.00;;;;;16.89;45.37;100977.28;5056307;28;45563;-83
2022/12/26 07:35:52;;;;;;;;;4.67;4.00;;;;;16.90;45.23;100952.69;5056080;28;45808;-68
2022/12/26 07:38:17;;;;;;;;;5.00;4.00;;;;;16.90;45.29;100961.47;5057023;28;46153;-75
2022/12/26 07:40:43;;;;;;;;;4.33;3.67;;;;;16.87;45.10;100950.91;5056731;28;45470;-85
2022/12/26 07:43:09;;;;;;;;;4.00;3.00;;;;;16.93;44.94;100957.09;5057243;28;45375;-80
2022/12/26 07:45:35;;;;;;;;;2.67;2.67;;;;;16.84;45.25;100944.69;5058324;28;45350;-82
2022/12/26 07:48:01;;;;;;;;;2.00;2.00;;;;;16.95;45.16;100976.47;5056316;28;46166;-74
2022/12/26 07:50:27;;;;;;;;;2.00;2.00;;;;;16.94;45.49;100978.22;5056060;28;45593;-72
2022/12/26 07:52:53;;;;;;;;;3.33;3.00;;;;;16.95;45.58;100979.09;5057636;28;45540;-83
2022/12/26 07:55:19;;;;;;;;;5.00;4.00;;;;;16.94;45.38;100987.91;5056834;28;45583;-84
2022/12/26 07:57:49;;;;;;;;;4.33;3.00;;;;;16.96;45.43;100992.31;5055896;28;46068;-69
2022/12/26 08:00:15;;;;;;;;;3.00;3.00;;;;;16.19;45.26;100867.44;5040207;28;45459;-83
2022/12/26 08:02:40;;;;;;;;;2.00;2.00;;;;;17.03;45.30;101009.09;5055979;28;45620;-83
2022/12/26 08:05:06;;;;;;;;;4.00;4.00;;;;;17.05;45.23;101010.91;5057017;28;45301;-72
2022/12/26 08:07:32;;;;;;;;;4.67;4.67;;;;;17.12;45.19;101009.22;5054402;28;46259;-81
2022/12/26 08:09:57;;;;;;;;;4.00;4.00;;;;;17.17;45.44;101007.53;5053055;28;45624;-83
2022/12/26 08:12:23;;;;;;;;;4.00;3.00;;;;;17.23;46.43;100999.66;5056047;28;45482;-76
2022/12/26 08:14:49;;;;;;;;;3.33;3.00;;;;;17.26;47.20;101004.06;5056028;28;45513;-88
2022/12/26 08:17:15;;;;;;;;;3.67;3.00;;;;;17.18;46.58;100982.00;5055115;28;45573;-77
2022/12/26 08:19:41;;;;;;;;;6.67;6.00;;;;;17.39;47.29;101010.34;5037441;28;45549;-86
2022/12/26 08:22:06;;;;;;;;;10.00;9.33;;;;;17.42;46.99;101011.25;5056231;28;45500;-87
2022/12/26 08:24:32;;;;;;;;;7.67;7.00;;;;;17.49;47.65;101028.06;5056217;28;45456;-68
2022/12/26 08:26:57;;;;;;;;;10.00;9.67;;;;;17.56;46.91;101021.97;5055605;28;45615;-68
2022/12/26 08:29:23;;;;;;;;;5.00;4.33;;;;;17.68;46.56;101026.47;5055042;28;45529;-89
2022/12/26 08:31:48;;;;;;;;;4.00;4.00;;;;;17.74;46.38;101028.28;5055464;28;45474;-84
2022/12/26 08:34:14;;;;;;;;;2.00;2.00;;;;;17.82;46.47;101031.88;5056117;28;45490;-82
2022/12/26 08:36:40;;;;;;;;;3.67;3.00;;;;;17.89;46.22;101036.38;5055707;28;46048;-89
2022/12/26 08:39:05;;;;;;;;;3.33;3.00;;;;;17.97;46.65;101052.28;5054943;28;45397;-88
2022/12/26 08:41:31;;;;;;;;;3.00;3.00;;;;;18.01;44.85;101059.38;5055078;28;45481;-82
2022/12/26 08:43:57;;;;;;;;;7.00;6.33;;;;;18.09;44.88;101061.19;5055439;28;45705;-83
2022/12/26 08:46:22;;;;;;;;;14.33;13.33;;;;;18.21;43.75;101067.44;5056327;28;46241;-87
2022/12/26 08:48:50;;;;;;;;;5.33;4.33;;;;;18.34;44.47;101071.03;5058078;28;45603;-63
2022/12/26 08:51:22;;;;;;;;;3.00;3.00;;;;;18.48;44.87;101082.59;5055971;28;45394;-85
2022/12/26 08:53:49;;;;;;;;;1.67;1.67;;;;;18.61;43.87;101080.91;5058541;28;45578;-77
2022/12/26 08:56:19;;;;;;;;;3.00;3.00;;;;;18.76;43.64;101088.03;5058719;28;46030;-71
2022/12/26 08:58:45;;;;;;;;;1.67;1.00;;;;;18.81;43.41;101087.22;5058359;28;45492;-87
2022/12/26 09:01:17;;;;;;;;;1.67;1.67;;;;;18.97;43.14;101095.25;5058850;28;46122;-68
2022/12/26 09:03:43;;;;;;;;;3.00;3.00;;;;;19.14;42.97;101104.16;5056759;28;45462;-83
2022/12/26 09:06:11;;;;;;;;;3.00;3.00;;;;;19.28;42.16;101113.00;5058886;28;46117;-87
2022/12/26 09:08:38;;;;;;;;;4.00;3.00;;;;;19.32;42.13;101091.81;5056391;28;45482;-84
2022/12/26 09:11:16;;;;;;;;;4.00;4.00;;;;;19.60;41.61;101112.22;5058792;28;45447;-66
2022/12/26 09:13:43;;;;;;;;;3.00;3.00;;;;;19.71;41.14;101127.25;5057193;28;45454;-69
2022/12/26 09:16:10;;;;;;;;;3.00;3.00;;;;;19.70;41.19;101125.50;5056986;28;45505;-66
2022/12/26 09:18:36;;;;;;;;;3.33;3.00;;;;;19.65;40.82;101134.28;5051962;28;45635;-67
2022/12/26 09:21:03;;;;;;;;;4.00;3.00;;;;;19.66;41.62;101129.91;5039644;28;45537;-67
2022/12/26 09:23:29;;;;;;;;;2.00;2.00;;;;;19.77;41.36;101132.59;5058347;28;45448;-67
2022/12/26 09:25:55;;;;;;;;;2.00;2.00;;;;;19.90;40.99;101128.19;5057864;28;45483;-67
2022/12/26 09:28:21;;;;;;;;;3.00;2.00;;;;;20.01;40.86;101114.03;5058137;28;46559;-71
2022/12/26 09:30:46;;;;;;;;;3.00;3.00;;;;;20.17;40.43;101125.53;5056177;28;45561;-66
2022/12/26 09:33:12;;;;;;;;;5.67;3.33;;;;;20.25;40.52;101134.41;5058623;28;45519;-82
2022/12/26 09:35:41;;;;;;;;;21.00;16.33;;;;;20.31;40.73;101140.56;5058728;28;45482;-85
2022/12/26 09:38:06;;;;;;;;;6.00;5.00;;;;;20.36;41.07;101150.28;5055530;28;45465;-68
2022/12/26 09:40:53;;;;;;;;;4.00;4.00;;;;;20.37;41.09;101159.13;5055541;28;45384;-67
2022/12/26 09:43:45;;;;;;;;;6.00;5.00;;;;;20.45;41.01;101166.22;5055312;28;45552;-85
2022/12/26 09:46:37;;;;;;;;;6.00;5.00;;;;;20.43;40.93;101169.75;5056935;28;46215;-85
2022/12/26 09:49:19;;;;;;;;;5.33;5.00;;;;;20.45;41.34;101174.19;5050701;28;45535;-82
2022/12/26 09:51:49;;;;;;;;;2.00;2.00;;;;;20.50;40.81;101168.84;5057720;28;45482;-80
2022/12/26 09:54:29;;;;;;;;;2.67;2.67;;;;;20.47;40.85;101168.84;5039663;28;45493;-83
2022/12/26 09:56:56;;;;;;;;;5.00;3.00;;;;;20.59;40.55;101181.25;5058128;28;45478;-79
2022/12/26 09:59:24;;;;;;;;;3.00;3.00;;;;;20.52;40.72;101174.16;5056238;28;45611;-76
2022/12/26 10:01:51;;;;;;;;;3.00;2.00;;;;;20.66;40.59;101193.66;5056493;28;45547;-68
2022/12/26 10:04:26;;;;;;;;;2.00;2.00;;;;;20.71;40.73;101190.97;5036479;28;45539;-70
2022/12/26 10:07:20;;;;;;;;;2.00;2.00;;;;;20.82;40.89;101213.09;5054325;28;46213;-82
2022/12/26 10:10:08;;;;;;;;;2.00;2.00;;;;;20.82;40.29;101208.66;5056444;28;45510;-68
2022/12/26 10:12:49;;;;;;;;;2.33;2.33;;;;;20.80;40.09;101215.75;5054984;28;45535;-76
2022/12/26 10:15:39;;;;;;;;;5.00;5.00;;;;;20.75;40.81;101220.19;5055007;28;45376;-82
2022/12/26 10:18:23;;;;;;;;;2.33;2.00;;;;;20.71;40.73;101228.16;5056965;28;46252;-72
2022/12/26 10:21:02;;;;;;;;;3.00;3.00;;;;;20.67;40.84;101229.91;5054534;28;45351;-82
2022/12/26 10:23:34;;;;;;;;;3.00;3.00;;;;;20.61;40.42;101237.88;5055591;28;45356;-72
2022/12/26 10:26:37;;;;;;;;;4.33;3.67;;;;;20.55;41.02;101236.09;5055678;28;45473;-81
2022/12/26 10:29:08;;;;;;;;;9.00;8.00;;;;;20.50;41.02;101243.19;5055301;28;46241;-70
2022/12/26 10:31:46;;;;;;;;;4.67;4.00;;;;;20.47;40.98;101243.16;5056400;28;45522;-83
2022/12/26 10:34:32;;;;;;;;;3.00;2.00;;;;;20.45;40.86;101245.84;5057509;28;45387;-72
2022/12/26 10:37:10;;;;;;;;;3.67;3.00;;;;;20.49;41.27;101246.69;5057902;28;45422;-71
2022/12/26 10:39:42;;;;;;;;;3.00;3.00;;;;;20.55;40.87;101249.38;5057600;28;45831;-83
2022/12/26 10:42:46;;;;;;;;;4.33;3.33;;;;;20.56;41.66;101251.13;5057166;28;45452;-77
2022/12/26 10:45:44;;;;;;;;;5.00;3.67;;;;;20.61;41.29;101257.38;5047389;28;45615;-78
2022/12/26 10:48:13;;;;;;;;;3.00;3.00;;;;;20.65;41.83;101252.91;5057465;28;45370;-74
2022/12/26 10:50:45;;;;;;;;;3.67;3.00;;;;;20.66;41.64;101260.03;5057346;28;45515;-83
2022/12/26 10:53:13;;;;;;;;;3.67;3.00;;;;;20.64;41.33;101262.66;5051721;28;45884;-83
2022/12/26 10:55:39;;;;;;;;;2.00;2.00;;;;;20.61;41.46;101264.44;5037892;28;45497;-68
2022/12/26 10:58:18;;;;;;;;;1.33;1.33;;;;;20.55;41.49;101269.72;5057072;28;46675;-83
2022/12/26 11:00:44;;;;;;;;;4.00;2.00;;;;;20.48;41.54;101275.91;5056194;28;45509;-81
2022/12/26 11:03:12;;;;;;;;;3.00;3.00;;;;;20.41;41.75;101280.31;5057024;28;45442;-80
2022/12/26 11:05:48;;;;;;;;;2.33;2.33;;;;;20.30;42.14;101290.94;5056617;28;45500;-86
2022/12/26 11:08:25;;;;;;;;;3.33;3.33;;;;;20.24;42.99;101289.13;5054694;28;45546;-86
2022/12/26 11:11:10;;;;;;;;;2.67;2.67;;;;;20.12;44.00;101298.84;5056422;28;46071;-83
2022/12/26 11:13:40;;;;;;;;;4.00;3.00;;;;;19.95;45.28;101286.41;5043169;28;45475;-86
2022/12/26 11:16:07;;;;;;;;;2.00;2.00;;;;;19.90;45.90;101298.78;5056828;28;45654;-77
2022/12/26 11:18:38;;;;;;;;;3.00;3.00;;;;;19.87;46.53;101301.41;5057535;28;45407;-75
2022/12/26 11:21:18;;;;;;;;;4.00;3.00;;;;;19.86;46.91;101300.53;5056747;28;46023;-75
2022/12/26 11:23:48;;;;;;;;;2.33;2.33;;;;;19.99;46.81;101303.22;5045013;28;45526;-86
2022/12/26 11:26:31;;;;;;;;;2.00;2.00;;;;;20.00;47.86;101305.88;5060045;28;45264;-87
2022/12/26 11:29:14;;;;;;;;;3.33;1.67;;;;;19.93;47.56;101303.19;5057201;28;45418;-76
2022/12/26 11:31:55;;;;;;;;;2.33;2.00;;;;;19.73;47.96;101285.44;5057075;28;45379;-70
2022/12/26 11:34:33;;;;;;;;;1.00;1.00;;;;;19.59;48.87;101295.06;5056683;28;45550;-81
2022/12/26 11:36:59;;;;;;;;;3.00;2.67;;;;;19.63;48.80;101295.09;5041587;28;45336;-87
2022/12/26 11:39:29;;;;;;;;;4.00;4.00;;;;;19.64;48.77;101290.69;5057003;28;45194;-86
2022/12/26 11:41:56;;;;;;;;;2.00;1.00;;;;;19.71;48.52;101300.44;5056655;28;45529;-84
2022/12/26 11:44:24;;;;;;;;;1.00;0.67;;;;;19.64;48.46;101296.00;5056507;28;45501;-86
2022/12/26 11:47:09;;;;;;;;;1.00;1.00;;;;;19.51;48.44;101302.97;5057007;28;45402;-85
2022/12/26 11:49:37;;;;;;;;;1.00;1.00;;;;;19.53;48.61;101309.16;5057220;28;45435;-79
2022/12/26 11:52:54;;;;;;;;;0.00;0.00;;;;;19.54;48.50;101302.13;5056879;28;46003;-74
2022/12/26 11:55:28;;;;;;;;;0.00;0.00;;;;;19.58;48.59;101311.88;5013448;28;45477;-84
2022/12/26 11:57:56;;;;;;;;;0.00;0.00;;;;;19.61;48.28;101310.09;5057017;28;45517;-82
2022/12/26 12:00:24;;;;;;;;;1.00;1.00;;;;;19.68;48.01;101309.25;5056678;28;45437;-72
2022/12/26 12:02:50;;;;;;;;;3.00;3.00;;;;;19.76;48.14;101311.97;5056233;28;45411;-76
2022/12/26 12:05:27;;;;;;;;;1.67;1.67;;;;;19.87;47.91;101314.66;5056327;28;46062;-86
2022/12/26 12:08:38;;;;;;;;;0.00;0.00;;;;;19.86;47.35;101307.59;5056024;28;45571;-84
2022/12/26 12:11:09;;;;;;;;;0.00;0.00;;;;;19.85;47.18;101319.94;5041959;28;45434;-86
2022/12/26 12:13:45;;;;;;;;;0.00;0.00;;;;;19.42;47.34;101274.69;5056516;28;45237;-68
2022/12/26 12:16:29;;;;;;;;;0.00;0.00;;;;;19.67;46.86;101314.53;5057795;28;45477;-86
2022/12/26 12:19:23;;;;;;;;;0.00;0.00;;;;;19.63;46.83;101310.09;5058485;28;45482;-75
2022/12/26 12:22:00;;;;;;;;;0.00;0.00;;;;;19.77;46.73;101310.19;5064275;28;45437;-83
2022/12/26 12:24:41;;;;;;;;;0.00;0.00;;;;;19.80;46.49;101319.06;5061459;28;46167;-86
2022/12/26 12:27:23;;;;;;;;;0.00;0.00;;;;;19.81;46.66;101296.97;5063483;28;45205;-78
2022/12/26 12:30:07;;;;;;;;;0.00;0.00;;;;;20.05;46.70;101317.41;5061957;28;45371;-86
2022/12/26 12:33:16;;;;;;;;;0.00;0.00;;;;;19.95;46.61;101310.28;5062073;28;45426;-83
2022/12/26 12:36:19;;;;;;;;;0.00;0.00;;;;;19.90;46.80;101313.81;5018988;28;46025;-80
2022/12/26 12:39:31;;;;;;;;;0.00;0.00;;;;;19.87;46.45;101322.63;5057951;28;45461;-86
2022/12/26 12:42:45;;;;;;;;;0.00;0.00;;;;;19.79;46.85;101317.28;5028179;28;45631;-86
2022/12/26 12:45:20;;;;;;;;;0.33;0.00;;;;;19.81;46.96;101307.56;5037121;28;45398;-73
2022/12/26 12:48:07;;;;;;;;;0.00;0.00;;;;;19.80;47.18;101305.81;5043653;28;46075;-87
2022/12/26 12:50:58;;;;;;;;;0.00;0.00;;;;;19.59;46.67;101277.41;5071172;28;45303;-84
2022/12/26 12:53:37;;;;;;;;;0.00;0.00;;;;;19.85;46.80;101314.66;5058993;28;45347;-86
2022/12/26 12:56:34;;;;;;;;;0.00;0.00;;;;;20.05;46.61;101309.44;5061468;28;45350;-85
2022/12/26 12:59:26;;;;;;;;;0.00;0.00;;;;;20.13;46.59;101300.59;5063132;28;45580;-81
2022/12/26 13:01:57;;;;;;;;;0.00;0.00;;;;;20.16;46.00;101303.28;5058481;28;45463;-83
2022/12/26 13:04:30;;;;;;;;;0.00;0.00;;;;;19.98;46.66;101309.41;5057329;28;45397;-86
2022/12/26 13:07:04;;;;;;;;;0.00;0.00;;;;;19.68;47.24;101306.59;5057543;28;45379;-85
2022/12/26 13:09:51;;;;;;;;;1.00;0.67;;;;;19.20;48.07;101278.97;5056163;28;45404;-86
2022/12/26 13:12:21;;;;;;;;;1.00;0.00;;;;;19.13;48.16;101301.00;5056020;28;45306;-84
2022/12/26 13:15:01;;;;;;;;;0.00;0.00;;;;;19.23;48.60;101321.34;5055385;28;45499;-87
2022/12/26 13:17:55;;;;;;;;;0.00;0.00;;;;;19.45;48.15;101313.53;5055734;28;45451;-85
2022/12/26 13:20:31;;;;;;;;;0.00;0.00;;;;;19.50;48.09;101308.25;5052350;28;45623;-87
2022/12/26 13:26:03;;;;;;;;;0.00;0.00;;;;;19.70;48.03;101300.44;5056226;28;45277;-83
2022/12/26 13:28:39;;;;;;;;;0.00;0.00;;;;;19.70;48.47;101305.75;5055693;28;45443;-84
2022/12/26 13:31:05;;;;;;;;;0.67;0.67;;;;;19.57;49.00;101299.47;5055383;28;46012;-86
2022/12/26 13:33:31;;;;;;;;;0.00;0.00;;;;;19.63;49.48;101307.47;5056005;28;45609;-77
2022/12/26 13:36:03;;;;;;;;;0.00;0.00;;;;;19.58;49.93;101288.88;5060755;28;45352;-77
2022/12/26 13:38:56;;;;;;;;;0.00;0.00;;;;;19.52;50.95;101311.81;5060635;28;47012;-75
2022/12/26 13:44:18;;;;;;;;;0.00;0.00;;;;;19.67;51.44;101296.00;5059351;28;45897;-84
2022/12/26 13:46:46;;;;;;;;;1.00;1.00;;;;;19.61;50.87;101291.53;5060146;28;45505;-82
2022/12/26 13:49:38;;;;;;;;;0.00;0.00;;;;;19.58;51.48;101286.25;5061189;28;45461;-80
2022/12/26 13:52:10;;;;;;;;;1.00;1.00;;;;;19.56;50.85;101290.66;5058776;28;45470;-86
2022/12/26 13:54:49;;;;;;;;;21.33;16.00;;;;;19.49;50.58;101291.47;5058843;28;45345;-71
2022/12/26 13:57:33;;;;;;;;;13.33;12.00;;;;;19.49;49.84;101294.13;5053195;28;45502;-76
2022/12/26 14:00:05;;;;;;;;;8.00;5.00;;;;;19.43;50.19;101304.69;5039714;28;45478;-87